Fristoe, Missouri
Current Conditions -  °F | °C
As of 9:35 PM on Friday 24 Oct 2014 (Local Time) from KGLY Reporting Station
Haze Haze  
Wind Chill: 66°   Ceiling: Unl
Heat Index: 66°   Visibility: 5mi
Dew Point: 63°   Wind: 6mph
Humidity: 88%   Direction: 200°SSW
Pressure: 30.01"   Gusts: NA
Location:  38.3166°N, 93.2711°W
Report Text: KGLY 250235Z AUTO 20005KT 5SM HZ CLR 19/17 A3001 RMK AO2
Loading
Personal Weather Stations






























Interactive Weather Map
Tropical Storm Tracking
New forecast layout! Learn more

10-Day Weather Forecast

Advertisements
Track Severe Weather on mobile